Time;durP1;ratioP1;P1;durP2;ratioP2;P2;SDS_P1;SDS_P2;PMS_P1;PMS_P2;Temp;Humidity;BMP_temperature;BMP_pressure;BME280_temperature;BME280_humidity;BME280_pressure;Samples;Min_cycle;Max_cycle;Signal;HPM_P1;HPM_P2
2021/12/03 00:01:05;;;;;;;17.40;9.43;;;;;;;;;;5090222;28;20350;-68
2021/12/03 00:03:32;;;;;;;21.43;11.57;;;;;;;;;;5092177;28;20278;-67
2021/12/03 00:05:58;;;;;;;17.63;10.57;;;;;;;;;;5056032;28;20784;-68
2021/12/03 00:08:25;;;;;;;19.33;9.93;;;;;;;;;;5072555;28;20282;-67
2021/12/03 00:11:00;;;;;;;17.90;9.33;;;;;;;;;;5073102;28;20393;-67
2021/12/03 00:13:27;;;;;;;15.37;8.90;;;;;;;;;;5074080;28;20676;-67
2021/12/03 00:15:56;;;;;;;15.77;9.03;;;;;;;;;;5092362;28;20354;-67
2021/12/03 00:18:22;;;;;;;15.80;9.30;;;;;;;;;;5092358;28;20286;-67
2021/12/03 00:20:49;;;;;;;26.37;10.50;;;;;;;;;;5091824;28;20286;-67
2021/12/03 00:23:15;;;;;;;20.13;10.17;;;;;;;;;;5091584;28;21025;-67
2021/12/03 00:25:41;;;;;;;25.63;10.83;;;;;;;;;;5091973;28;20768;-68
2021/12/03 00:28:08;;;;;;;21.33;10.97;;;;;;;;;;5091844;28;20290;-67
2021/12/03 00:30:36;;;;;;;21.13;12.17;;;;;;;;;;5092113;28;20392;-68
2021/12/03 00:33:03;;;;;;;26.43;13.57;;;;;;;;;;5092294;28;20289;-67
2021/12/03 00:35:30;;;;;;;27.17;14.63;;;;;;;;;;5073146;28;20363;-68
2021/12/03 00:37:56;;;;;;;31.73;16.73;;;;;;;;;;5073145;28;20294;-68
2021/12/03 00:40:25;;;;;;;29.47;17.80;;;;;;;;;;5092080;28;20288;-68
2021/12/03 00:42:51;;;;;;;33.77;18.80;;;;;;;;;;5092160;28;20083;-68
2021/12/03 00:45:17;;;;;;;34.87;19.13;;;;;;;;;;5091373;28;21041;-68
2021/12/03 00:47:43;;;;;;;41.67;21.50;;;;;;;;;;5073688;28;20290;-68
2021/12/03 00:50:11;;;;;;;39.90;23.30;;;;;;;;;;5091244;28;20370;-68
2021/12/03 00:52:37;;;;;;;49.50;25.50;;;;;;;;;;5049862;28;20287;-68
2021/12/03 00:55:05;;;;;;;48.93;25.97;;;;;;;;;;5070085;28;20307;-68
2021/12/03 00:57:31;;;;;;;46.53;24.40;;;;;;;;;;5087934;28;20596;-67
2021/12/03 00:59:57;;;;;;;42.77;24.47;;;;;;;;;;5091445;28;20293;-68
2021/12/03 01:02:23;;;;;;;43.87;22.63;;;;;;;;;;5091628;28;20282;-68
2021/12/03 01:04:49;;;;;;;44.57;25.07;;;;;;;;;;5090942;28;20040;-67
2021/12/03 01:07:15;;;;;;;50.83;28.30;;;;;;;;;;5074011;28;20327;-68
2021/12/03 01:09:42;;;;;;;53.47;30.40;;;;;;;;;;5073492;28;21015;-69
2021/12/03 01:12:08;;;;;;;53.70;30.53;;;;;;;;;;5072926;28;20369;-68
2021/12/03 01:14:34;;;;;;;56.63;31.90;;;;;;;;;;5091298;28;20340;-67
2021/12/03 01:17:00;;;;;;;61.50;32.03;;;;;;;;;;5090723;28;20283;-67
2021/12/03 01:19:27;;;;;;;62.43;32.23;;;;;;;;;;5072480;28;20713;-67
2021/12/03 01:21:53;;;;;;;63.97;34.27;;;;;;;;;;5082760;28;20333;-67
2021/12/03 01:24:19;;;;;;;57.33;30.47;;;;;;;;;;5070991;28;20301;-67
2021/12/03 01:26:45;;;;;;;54.70;29.30;;;;;;;;;;5052193;28;20279;-68
2021/12/03 01:29:12;;;;;;;55.90;29.40;;;;;;;;;;5052873;28;20287;-68
2021/12/03 01:31:38;;;;;;;52.67;29.90;;;;;;;;;;5053008;28;20298;-67
2021/12/03 01:34:04;;;;;;;57.17;30.37;;;;;;;;;;5070256;28;20830;-67
2021/12/03 01:36:30;;;;;;;51.57;29.43;;;;;;;;;;5070779;28;20310;-68
2021/12/03 01:38:56;;;;;;;58.80;31.63;;;;;;;;;;5035939;28;20287;-68
2021/12/03 01:41:22;;;;;;;54.70;31.37;;;;;;;;;;5070285;28;21288;-68
2021/12/03 01:43:50;;;;;;;52.73;29.93;;;;;;;;;;5070635;28;20340;-67
2021/12/03 01:46:19;;;;;;;56.97;32.90;;;;;;;;;;5052639;28;20287;-67
2021/12/03 01:48:45;;;;;;;64.00;31.90;;;;;;;;;;5070216;28;20321;-67
2021/12/03 01:51:11;;;;;;;52.40;31.50;;;;;;;;;;5070049;28;20682;-67
2021/12/03 01:53:39;;;;;;;51.87;30.53;;;;;;;;;;5070484;28;20298;-68
2021/12/03 01:56:07;;;;;;;55.73;28.70;;;;;;;;;;5069571;28;20044;-68
2021/12/03 01:58:33;;;;;;;52.50;30.13;;;;;;;;;;5069414;28;20279;-68
2021/12/03 02:01:01;;;;;;;50.30;29.00;;;;;;;;;;5070504;28;20279;-68
2021/12/03 02:03:29;;;;;;;53.33;30.73;;;;;;;;;;5051881;28;20291;-68
2021/12/03 02:05:55;;;;;;;56.30;30.23;;;;;;;;;;5052048;28;20344;-67
2021/12/03 02:08:21;;;;;;;55.43;29.73;;;;;;;;;;5069370;28;20296;-68
2021/12/03 02:10:48;;;;;;;53.43;29.63;;;;;;;;;;5090155;28;20730;-68
2021/12/03 02:13:14;;;;;;;60.40;31.53;;;;;;;;;;5054984;28;20298;-68
2021/12/03 02:15:44;;;;;;;51.33;28.00;;;;;;;;;;5070797;28;20788;-67
2021/12/03 02:18:11;;;;;;;55.27;30.30;;;;;;;;;;5090172;28;20293;-67
2021/12/03 02:20:50;;;;;;;55.10;29.67;;;;;;;;;;5088108;28;20389;-68
2021/12/03 02:23:16;;;;;;;53.50;31.23;;;;;;;;;;5071439;28;20399;-69
2021/12/03 02:25:43;;;;;;;54.77;29.80;;;;;;;;;;5089666;28;20284;-67
2021/12/03 02:28:10;;;;;;;52.50;29.27;;;;;;;;;;5082801;28;20294;-67
2021/12/03 02:30:36;;;;;;;48.87;30.47;;;;;;;;;;5071620;28;20301;-67
2021/12/03 02:33:02;;;;;;;58.23;32.60;;;;;;;;;;5071881;28;20662;-67
2021/12/03 02:35:28;;;;;;;52.23;29.77;;;;;;;;;;5075306;28;20386;-68
2021/12/03 02:37:55;;;;;;;65.73;34.00;;;;;;;;;;5069075;28;20307;-68
2021/12/03 02:40:22;;;;;;;52.67;31.53;;;;;;;;;;5051606;28;20637;-67
2021/12/03 02:42:48;;;;;;;51.33;31.90;;;;;;;;;;5069060;28;20282;-68
2021/12/03 02:45:15;;;;;;;55.47;30.93;;;;;;;;;;5051390;28;20291;-68
2021/12/03 02:47:41;;;;;;;59.03;32.60;;;;;;;;;;5057569;28;20301;-68
2021/12/03 02:50:08;;;;;;;52.67;30.27;;;;;;;;;;5071574;28;20385;-68
2021/12/03 02:52:35;;;;;;;54.80;32.20;;;;;;;;;;5050046;28;20703;-67
2021/12/03 02:55:01;;;;;;;56.87;32.27;;;;;;;;;;5068598;28;20352;-68
2021/12/03 02:57:27;;;;;;;55.07;32.37;;;;;;;;;;5077026;28;20335;-68
2021/12/03 02:59:53;;;;;;;55.53;32.07;;;;;;;;;;5089478;28;20282;-68
2021/12/03 03:02:19;;;;;;;46.90;31.03;;;;;;;;;;5071545;28;20290;-68
2021/12/03 03:04:45;;;;;;;53.50;32.87;;;;;;;;;;5089893;28;20110;-67
2021/12/03 03:07:11;;;;;;;57.70;31.23;;;;;;;;;;5054057;28;20286;-68
2021/12/03 03:09:38;;;;;;;56.00;32.57;;;;;;;;;;5089221;28;20297;-68
2021/12/03 03:12:04;;;;;;;49.70;31.43;;;;;;;;;;5071185;28;20655;-68
2021/12/03 03:14:30;;;;;;;60.17;31.27;;;;;;;;;;5068772;28;20295;-68
2021/12/03 03:16:56;;;;;;;52.90;30.13;;;;;;;;;;5078742;28;20383;-68
2021/12/03 03:19:23;;;;;;;59.97;31.57;;;;;;;;;;5058614;28;20287;-68
2021/12/03 03:21:50;;;;;;;52.03;30.17;;;;;;;;;;5070437;28;20355;-68
2021/12/03 03:24:17;;;;;;;52.57;30.47;;;;;;;;;;5088724;28;20290;-68
2021/12/03 03:26:44;;;;;;;54.17;30.40;;;;;;;;;;5088326;28;20282;-67
2021/12/03 03:29:11;;;;;;;57.50;31.77;;;;;;;;;;5070542;28;20788;-68
2021/12/03 03:31:37;;;;;;;50.60;32.23;;;;;;;;;;5070166;28;20294;-68
2021/12/03 03:34:04;;;;;;;58.73;33.37;;;;;;;;;;5088549;28;20282;-69
2021/12/03 03:36:37;;;;;;;59.53;33.83;;;;;;;;;;5070710;28;20397;-67
2021/12/03 03:39:05;;;;;;;54.28;32.67;;;;;;;;;;5070468;28;20282;-68
2021/12/03 03:41:32;;;;;;;53.30;33.27;;;;;;;;;;5087875;28;20453;-69
2021/12/03 03:43:58;;;;;;;62.17;34.80;;;;;;;;;;5088819;28;20294;-68
2021/12/03 03:46:24;;;;;;;54.47;35.03;;;;;;;;;;5046763;28;20283;-68
2021/12/03 03:48:50;;;;;;;68.07;35.70;;;;;;;;;;5058226;28;20294;-68
2021/12/03 03:51:17;;;;;;;56.47;33.17;;;;;;;;;;5062578;28;20282;-68
2021/12/03 03:53:43;;;;;;;48.93;32.00;;;;;;;;;;5042532;28;20290;-68
2021/12/03 03:56:10;;;;;;;52.93;34.47;;;;;;;;;;5076378;28;20306;-68
2021/12/03 03:58:41;;;;;;;52.20;34.83;;;;;;;;;;5058365;28;20326;-68
2021/12/03 04:01:08;;;;;;;53.67;33.97;;;;;;;;;;5050645;28;20282;-68
2021/12/03 04:03:34;;;;;;;53.53;33.60;;;;;;;;;;5068402;28;20298;-68
2021/12/03 04:06:00;;;;;;;56.33;34.83;;;;;;;;;;5068522;28;20302;-68
2021/12/03 04:08:29;;;;;;;60.03;34.17;;;;;;;;;;5050219;28;20287;-68
2021/12/03 04:10:55;;;;;;;55.40;35.17;;;;;;;;;;5072898;28;20724;-67
2021/12/03 04:13:21;;;;;;;52.53;33.20;;;;;;;;;;5070461;28;20309;-68
2021/12/03 04:15:48;;;;;;;59.03;35.70;;;;;;;;;;5087955;28;20807;-67
2021/12/03 04:18:14;;;;;;;53.63;34.40;;;;;;;;;;5069158;28;20295;-68
2021/12/03 04:20:40;;;;;;;51.43;33.20;;;;;;;;;;5067400;28;20756;-68
2021/12/03 04:23:06;;;;;;;61.00;36.73;;;;;;;;;;5034006;28;20298;-68
2021/12/03 04:25:34;;;;;;;52.63;33.50;;;;;;;;;;5076905;28;20298;-68
2021/12/03 04:28:00;;;;;;;50.17;33.57;;;;;;;;;;5070612;28;20647;-67
2021/12/03 04:30:27;;;;;;;57.13;35.27;;;;;;;;;;5070019;28;20324;-67
2021/12/03 04:32:54;;;;;;;60.33;34.33;;;;;;;;;;5087851;28;20323;-68
2021/12/03 04:35:20;;;;;;;54.77;36.70;;;;;;;;;;5075941;28;20306;-68
2021/12/03 04:37:46;;;;;;;59.97;35.57;;;;;;;;;;5050030;28;20294;-68
2021/12/03 04:40:13;;;;;;;64.93;37.23;;;;;;;;;;5068592;28;20290;-68
2021/12/03 04:42:39;;;;;;;71.40;39.80;;;;;;;;;;5091743;28;20278;-68
2021/12/03 04:45:06;;;;;;;66.03;37.43;;;;;;;;;;5091003;28;20294;-68
2021/12/03 04:47:32;;;;;;;67.90;37.33;;;;;;;;;;5073554;28;20343;-68
2021/12/03 04:49:58;;;;;;;54.77;35.53;;;;;;;;;;5091541;28;20629;-68
2021/12/03 04:52:25;;;;;;;57.73;33.30;;;;;;;;;;5091208;28;20290;-68
2021/12/03 04:54:51;;;;;;;60.67;35.07;;;;;;;;;;5091294;28;20116;-68
2021/12/03 04:57:17;;;;;;;56.70;34.13;;;;;;;;;;5091363;28;20282;-68
2021/12/03 04:59:43;;;;;;;58.83;33.93;;;;;;;;;;5090531;28;20290;-68
2021/12/03 05:02:09;;;;;;;62.00;33.57;;;;;;;;;;5073176;28;20369;-68
2021/12/03 05:04:39;;;;;;;61.87;35.70;;;;;;;;;;5091767;28;20617;-68
2021/12/03 05:09:35;;;;;;;70.03;37.60;;;;;;;;;;5091217;28;20651;-68
2021/12/03 05:12:01;;;;;;;61.90;34.37;;;;;;;;;;5090958;28;20421;-68
2021/12/03 05:14:27;;;;;;;70.27;37.03;;;;;;;;;;5074425;28;20300;-68
2021/12/03 05:16:53;;;;;;;75.37;34.07;;;;;;;;;;5090818;28;20305;-68
2021/12/03 05:19:19;;;;;;;58.93;33.60;;;;;;;;;;5073152;28;20344;-68
2021/12/03 05:21:45;;;;;;;64.20;35.33;;;;;;;;;;5072811;28;20703;-68
2021/12/03 05:24:12;;;;;;;56.87;33.97;;;;;;;;;;5072552;28;20290;-68
2021/12/03 05:26:39;;;;;;;76.80;35.83;;;;;;;;;;5072497;28;20322;-68
2021/12/03 05:29:06;;;;;;;59.10;33.63;;;;;;;;;;5072751;28;20818;-67
2021/12/03 05:31:32;;;;;;;64.43;32.63;;;;;;;;;;5090573;28;20324;-68
2021/12/03 05:33:59;;;;;;;59.33;33.03;;;;;;;;;;5072653;28;20293;-68
2021/12/03 05:36:25;;;;;;;57.63;31.50;;;;;;;;;;5055979;28;20343;-68
2021/12/03 05:38:51;;;;;;;53.83;32.70;;;;;;;;;;5072668;28;20402;-68
2021/12/03 05:41:17;;;;;;;76.30;33.73;;;;;;;;;;5089604;28;20293;-68
2021/12/03 05:43:43;;;;;;;50.77;28.90;;;;;;;;;;5071987;28;20296;-68
2021/12/03 05:46:09;;;;;;;64.10;31.50;;;;;;;;;;5089920;28;20294;-67
2021/12/03 05:48:35;;;;;;;65.87;31.37;;;;;;;;;;5090241;28;20282;-68
2021/12/03 05:51:01;;;;;;;60.80;29.57;;;;;;;;;;5090103;28;20311;-68
2021/12/03 05:53:27;;;;;;;54.37;32.30;;;;;;;;;;5071642;28;20097;-68
2021/12/03 05:55:54;;;;;;;68.73;31.27;;;;;;;;;;5090022;28;20420;-68
2021/12/03 05:58:20;;;;;;;52.93;28.07;;;;;;;;;;5072325;28;20500;-68
2021/12/03 06:00:47;;;;;;;57.80;29.50;;;;;;;;;;5072061;28;20484;-68
2021/12/03 06:03:13;;;;;;;61.50;30.60;;;;;;;;;;5071706;28;20366;-68
2021/12/03 06:05:42;;;;;;;62.53;30.93;;;;;;;;;;5072081;28;20293;-69
2021/12/03 06:08:09;;;;;;;54.37;30.03;;;;;;;;;;5090034;28;20373;-69
2021/12/03 06:10:35;;;;;;;57.60;29.93;;;;;;;;;;5055324;28;20282;-68
2021/12/03 06:13:02;;;;;;;51.50;28.90;;;;;;;;;;5089645;28;20381;-68
2021/12/03 06:15:28;;;;;;;59.00;30.17;;;;;;;;;;5079222;28;20322;-68
2021/12/03 06:17:54;;;;;;;52.40;28.47;;;;;;;;;;5070137;28;20835;-68
2021/12/03 06:20:20;;;;;;;55.63;27.77;;;;;;;;;;5077315;28;20294;-69
2021/12/03 06:22:47;;;;;;;56.90;28.70;;;;;;;;;;5066513;28;20287;-69
2021/12/03 06:25:14;;;;;;;56.20;28.50;;;;;;;;;;5068030;28;20655;-68
2021/12/03 06:27:40;;;;;;;51.23;27.23;;;;;;;;;;5068082;28;20287;-68
2021/12/03 06:30:07;;;;;;;61.07;30.43;;;;;;;;;;5067314;28;20787;-69
2021/12/03 06:32:34;;;;;;;53.70;27.70;;;;;;;;;;5075813;28;20283;-69
2021/12/03 06:35:00;;;;;;;58.90;29.43;;;;;;;;;;5069555;28;20881;-68
2021/12/03 06:37:26;;;;;;;52.10;26.87;;;;;;;;;;5071496;28;20286;-69
2021/12/03 06:39:52;;;;;;;48.60;26.43;;;;;;;;;;5071970;28;20040;-69
2021/12/03 06:42:18;;;;;;;53.37;27.60;;;;;;;;;;5070645;28;20524;-68
2021/12/03 06:44:44;;;;;;;57.93;26.40;;;;;;;;;;5071056;28;20040;-68
2021/12/03 06:47:10;;;;;;;56.07;26.70;;;;;;;;;;5089534;28;20051;-69
2021/12/03 06:49:36;;;;;;;51.70;26.27;;;;;;;;;;5070975;28;20369;-69
2021/12/03 06:52:07;;;;;;;51.70;25.40;;;;;;;;;;5071279;28;20293;-69
2021/12/03 06:54:34;;;;;;;52.40;27.10;;;;;;;;;;5088840;28;20290;-69
2021/12/03 06:57:04;;;;;;;52.37;27.67;;;;;;;;;;5070931;28;20383;-69
2021/12/03 06:59:31;;;;;;;51.67;25.63;;;;;;;;;;5070149;28;20386;-69
2021/12/03 07:01:57;;;;;;;50.77;23.30;;;;;;;;;;5070291;28;20286;-70
2021/12/03 07:04:23;;;;;;;63.43;27.40;;;;;;;;;;5070918;28;20297;-70
2021/12/03 07:06:49;;;;;;;53.63;26.00;;;;;;;;;;5071415;28;20293;-69
2021/12/03 07:09:16;;;;;;;52.93;26.70;;;;;;;;;;5070898;28;20294;-69
2021/12/03 07:11:42;;;;;;;48.50;25.53;;;;;;;;;;5067068;28;20290;-69
2021/12/03 07:14:08;;;;;;;53.07;26.07;;;;;;;;;;5088345;28;20333;-69
2021/12/03 07:16:34;;;;;;;58.50;28.20;;;;;;;;;;5088227;28;20355;-70
2021/12/03 07:19:00;;;;;;;60.37;28.40;;;;;;;;;;5070750;28;20289;-69
2021/12/03 07:21:26;;;;;;;56.87;26.37;;;;;;;;;;5071144;28;20278;-69
2021/12/03 07:23:53;;;;;;;70.57;29.33;;;;;;;;;;5060807;28;20669;-69
2021/12/03 07:26:20;;;;;;;58.73;28.67;;;;;;;;;;5050961;28;20653;-69
2021/12/03 07:28:46;;;;;;;62.73;27.93;;;;;;;;;;5066050;28;20286;-69
2021/12/03 07:31:13;;;;;;;61.53;27.90;;;;;;;;;;5070663;28;20282;-68
2021/12/03 07:33:39;;;;;;;70.03;30.03;;;;;;;;;;5070337;28;20286;-69
2021/12/03 07:36:06;;;;;;;65.70;29.47;;;;;;;;;;5066096;28;20313;-69
2021/12/03 07:38:32;;;;;;;74.57;30.93;;;;;;;;;;5033843;28;20295;-69
2021/12/03 07:40:58;;;;;;;73.33;31.17;;;;;;;;;;5050039;28;20287;-68
2021/12/03 07:43:24;;;;;;;68.07;30.97;;;;;;;;;;5065171;28;20361;-69
2021/12/03 07:45:51;;;;;;;73.90;33.00;;;;;;;;;;5069920;28;20067;-69
2021/12/03 07:48:17;;;;;;;68.90;32.37;;;;;;;;;;5053162;28;20430;-69
2021/12/03 07:50:44;;;;;;;79.40;34.80;;;;;;;;;;5064368;28;20425;-69
2021/12/03 07:53:14;;;;;;;83.60;36.83;;;;;;;;;;5057736;28;20290;-69
2021/12/03 07:55:40;;;;;;;82.47;37.40;;;;;;;;;;5068937;28;20315;-69
2021/12/03 07:58:06;;;;;;;76.80;38.47;;;;;;;;;;5058782;28;20290;-69
2021/12/03 08:00:32;;;;;;;82.07;40.53;;;;;;;;;;5061265;28;20298;-69
2021/12/03 08:02:59;;;;;;;112.70;42.80;;;;;;;;;;5062435;28;20290;-69
2021/12/03 08:05:25;;;;;;;104.37;44.27;;;;;;;;;;5059249;28;20176;-69
2021/12/03 08:07:51;;;;;;;90.80;42.20;;;;;;;;;;5083982;28;20681;-70
2021/12/03 08:10:17;;;;;;;103.37;43.47;;;;;;;;;;5068038;28;20294;-69
2021/12/03 08:12:46;;;;;;;95.70;42.87;;;;;;;;;;5050235;28;20428;-70
2021/12/03 08:15:13;;;;;;;109.57;46.13;;;;;;;;;;5088901;28;20295;-69
2021/12/03 08:17:40;;;;;;;106.87;46.47;;;;;;;;;;5065127;28;20309;-70
2021/12/03 08:20:06;;;;;;;100.47;46.13;;;;;;;;;;5053311;28;20044;-69
2021/12/03 08:22:32;;;;;;;99.17;44.43;;;;;;;;;;5061463;28;20309;-69
2021/12/03 08:24:58;;;;;;;99.77;45.87;;;;;;;;;;5075226;28;21194;-69
2021/12/03 08:27:24;;;;;;;97.13;48.27;;;;;;;;;;5071449;28;20998;-69
2021/12/03 08:29:50;;;;;;;100.63;49.03;;;;;;;;;;5073772;28;20290;-68
2021/12/03 08:32:16;;;;;;;106.50;48.43;;;;;;;;;;5090705;28;20767;-69
2021/12/03 08:34:43;;;;;;;98.43;47.27;;;;;;;;;;5069716;28;20291;-69
2021/12/03 08:37:09;;;;;;;122.97;51.23;;;;;;;;;;5070115;28;20318;-69
2021/12/03 08:39:36;;;;;;;108.53;50.03;;;;;;;;;;5070028;28;20322;-69
2021/12/03 08:42:03;;;;;;;117.00;51.57;;;;;;;;;;5069674;28;20291;-69
2021/12/03 08:44:29;;;;;;;106.83;50.10;;;;;;;;;;5069800;28;20318;-69
2021/12/03 08:47:02;;;;;;;105.67;49.47;;;;;;;;;;5070293;28;20294;-69
2021/12/03 08:49:34;;;;;;;136.07;53.13;;;;;;;;;;5069684;28;20295;-69
2021/12/03 08:57:15;;;;;;;121.07;48.13;;;;;;;;;;5073136;28;20478;-69
2021/12/03 08:59:41;;;;;;;108.70;48.27;;;;;;;;;;5072705;28;20047;-69
2021/12/03 09:02:07;;;;;;;103.73;46.73;;;;;;;;;;5073116;28;20294;-69
2021/12/03 09:04:34;;;;;;;102.00;48.30;;;;;;;;;;5072389;28;20052;-69
2021/12/03 09:07:00;;;;;;;102.27;48.40;;;;;;;;;;5073181;28;20059;-69
2021/12/03 09:09:27;;;;;;;95.47;43.10;;;;;;;;;;5072690;28;20054;-69
2021/12/03 09:11:54;;;;;;;94.90;44.40;;;;;;;;;;5072977;28;20044;-70
2021/12/03 09:14:33;;;;;;;112.83;46.83;;;;;;;;;;5072687;28;20062;-69
2021/12/03 09:17:09;;;;;;;93.50;43.40;;;;;;;;;;5090219;28;20513;-69
2021/12/03 09:22:47;;;;;;;85.37;39.77;;;;;;;;;;5026180;28;20804;-69
2021/12/03 09:25:17;;;;;;;84.10;39.97;;;;;;;;;;5070802;28;20083;-69
2021/12/03 09:27:44;;;;;;;80.70;37.60;;;;;;;;;;5090627;28;20048;-69
2021/12/03 09:30:13;;;;;;;90.23;39.93;;;;;;;;;;5071983;28;20050;-69
2021/12/03 09:32:41;;;;;;;79.80;36.80;;;;;;;;;;5072301;28;20133;-68
2021/12/03 09:35:09;;;;;;;91.07;37.53;;;;;;;;;;5071500;28;20078;-69
2021/12/03 09:37:35;;;;;;;59.40;32.63;;;;;;;;;;5071701;28;20494;-69
2021/12/03 09:40:06;;;;;;;72.40;30.07;;;;;;;;;;5090290;28;20074;-68
2021/12/03 09:42:35;;;;;;;54.13;26.47;;;;;;;;;;5090337;28;20064;-68
2021/12/03 09:45:02;;;;;;;57.93;24.30;;;;;;;;;;5090158;28;20052;-69
2021/12/03 09:47:28;;;;;;;55.70;25.47;;;;;;;;;;5089354;28;20131;-69
2021/12/03 09:49:56;;;;;;;49.47;21.53;;;;;;;;;;5072303;28;20125;-68
2021/12/03 09:55:10;;;;;;;45.73;19.10;;;;;;;;;;5071665;28;20067;-69
2021/12/03 09:57:48;;;;;;;47.17;18.73;;;;;;;;;;5071058;28;20093;-68
2021/12/03 10:13:33;;;;;;;32.40;14.70;;;;;;;;;;5090883;28;20112;-68
2021/12/03 10:18:46;;;;;;;29.50;12.50;;;;;;;;;;5072079;28;20067;-69
2021/12/03 10:26:47;;;;;;;28.47;11.47;;;;;;;;;;5072345;28;20079;-69
2021/12/03 10:29:33;;;;;;;33.93;12.43;;;;;;;;;;5071802;28;20074;-69
2021/12/03 10:37:36;;;;;;;37.37;12.27;;;;;;;;;;5089255;28;20044;-69
2021/12/03 10:40:25;;;;;;;32.47;10.13;;;;;;;;;;5071748;28;20059;-69
2021/12/03 10:43:12;;;;;;;28.50;9.90;;;;;;;;;;5072055;28;20052;-69
2021/12/03 10:45:48;;;;;;;28.90;9.77;;;;;;;;;;5089817;28;20460;-69
2021/12/03 10:48:27;;;;;;;32.47;10.97;;;;;;;;;;5072146;28;20518;-69
2021/12/03 10:51:07;;;;;;;27.00;10.43;;;;;;;;;;5090037;28;20537;-69
2021/12/03 10:53:39;;;;;;;33.33;10.30;;;;;;;;;;5089845;28;20152;-69
2021/12/03 10:57:17;;;;;;;30.67;9.03;;;;;;;;;;5071943;28;20213;-69
2021/12/03 10:59:40;;;;;;;32.70;9.57;;;;;;;;;;5058571;28;20108;-70
2021/12/03 11:05:24;;;;;;;25.00;8.17;;;;;;;;;;5071710;28;20565;-69
2021/12/03 11:08:40;;;;;;;24.47;7.63;;;;;;;;;;5071356;28;20084;-70
2021/12/03 11:16:45;;;;;;;26.20;8.00;;;;;;;;;;5071061;28;20469;-69
2021/12/03 11:30:24;;;;;;;21.37;6.47;;;;;;;;;;5071389;28;20048;-69
2021/12/03 11:36:05;;;;;;;24.60;7.47;;;;;;;;;;5089142;28;20135;-69
2021/12/03 11:38:57;;;;;;;22.13;7.73;;;;;;;;;;5071435;28;20105;-69
2021/12/03 11:50:27;;;;;;;14.17;6.83;;;;;;;;;;5074791;28;20055;-69
2021/12/03 12:41:37;;;;;;;36.63;17.23;;;;;;;;;;5061778;28;20056;-69
2021/12/03 12:44:02;;;;;;;27.20;12.57;;;;;;;;;;5061039;28;20059;-69
2021/12/03 13:11:13;;;;;;;22.30;9.63;;;;;;;;;;5056469;28;20418;-69
2021/12/03 13:14:11;;;;;;;24.97;9.10;;;;;;;;;;5065893;28;20164;-69
2021/12/03 13:17:17;;;;;;;22.43;11.23;;;;;;;;;;5082138;28;20079;-69
2021/12/03 14:38:10;;;;;;;15.03;7.27;;;;;;;;;;5089198;28;20052;-69
2021/12/03 14:46:11;;;;;;;11.03;6.80;;;;;;;;;;5071171;28;20135;-69
2021/12/03 14:57:09;;;;;;;14.27;6.60;;;;;;;;;;5080571;28;20462;-69
2021/12/03 14:59:37;;;;;;;15.23;7.20;;;;;;;;;;5070034;28;20056;-69
2021/12/03 15:02:18;;;;;;;15.50;7.43;;;;;;;;;;5088837;28;20047;-69
2021/12/03 15:07:31;;;;;;;15.00;6.93;;;;;;;;;;5088777;28;20497;-69
2021/12/03 15:09:57;;;;;;;15.13;6.73;;;;;;;;;;5070734;28;20044;-70
2021/12/03 15:15:44;;;;;;;16.07;8.33;;;;;;;;;;5066641;28;20053;-69
2021/12/03 15:23:03;;;;;;;13.23;7.20;;;;;;;;;;5066439;28;20591;-69
2021/12/03 15:25:45;;;;;;;11.23;7.17;;;;;;;;;;5067343;28;20135;-69
2021/12/03 15:33:26;;;;;;;18.63;9.17;;;;;;;;;;5066281;28;20585;-69
2021/12/03 15:36:15;;;;;;;13.63;7.50;;;;;;;;;;5066838;28;20048;-70
2021/12/03 15:39:02;;;;;;;21.27;7.93;;;;;;;;;;5066842;28;20090;-69
2021/12/03 15:58:08;;;;;;;16.83;8.73;;;;;;;;;;5045214;28;20098;-70
2021/12/03 16:03:44;;;;;;;13.60;8.70;;;;;;;;;;5046493;28;20061;-69
2021/12/03 16:06:25;;;;;;;14.03;9.70;;;;;;;;;;5046572;28;20580;-69
2021/12/03 16:08:52;;;;;;;14.83;9.30;;;;;;;;;;5046333;28;20049;-69
2021/12/03 16:11:40;;;;;;;14.10;9.50;;;;;;;;;;5045291;28;20697;-70
2021/12/03 16:19:59;;;;;;;13.90;10.50;;;;;;;;;;5006705;28;20065;-69
2021/12/03 16:23:00;;;;;;;12.17;10.50;;;;;;;;;;5023586;28;20103;-70
2021/12/03 16:25:27;;;;;;;16.80;11.57;;;;;;;;;;5048945;28;20131;-69
2021/12/03 16:43:33;;;;;;;12.83;10.97;;;;;;;;;;5058244;28;20048;-69
2021/12/03 16:52:51;;;;;;;16.07;13.83;;;;;;;;;;5070906;28;20052;-70
2021/12/03 16:55:18;;;;;;;16.13;13.10;;;;;;;;;;5063615;28;20048;-69
2021/12/03 16:57:46;;;;;;;17.33;13.17;;;;;;;;;;5077941;28;20044;-69
2021/12/03 17:00:27;;;;;;;15.97;13.20;;;;;;;;;;5071336;28;20084;-69
2021/12/03 17:03:08;;;;;;;14.47;12.60;;;;;;;;;;5053385;28;20048;-70
2021/12/03 17:08:31;;;;;;;16.10;13.10;;;;;;;;;;5071213;28;20513;-69
2021/12/03 17:14:09;;;;;;;20.90;15.00;;;;;;;;;;5070962;28;20052;-69
2021/12/03 17:28:20;;;;;;;18.80;16.80;;;;;;;;;;5069337;28;20049;-69
2021/12/03 17:49:18;;;;;;;49.10;29.00;;;;;;;;;;5048221;28;20557;-70
2021/12/03 17:52:16;;;;;;;46.57;30.17;;;;;;;;;;5035132;28;20143;-70
2021/12/03 17:54:58;;;;;;;51.57;30.13;;;;;;;;;;5048241;28;20059;-70
2021/12/03 18:00:10;;;;;;;54.40;31.57;;;;;;;;;;5069660;28;20040;-69
2021/12/03 18:02:48;;;;;;;48.60;29.80;;;;;;;;;;5050703;28;20059;-70
2021/12/03 18:08:04;;;;;;;68.47;33.67;;;;;;;;;;5067225;28;20040;-69
2021/12/03 18:48:30;;;;;;;65.00;33.93;;;;;;;;;;5074980;28;20673;-69
2021/12/03 18:53:43;;;;;;;58.33;33.83;;;;;;;;;;5057898;28;20561;-70
2021/12/03 18:56:20;;;;;;;75.17;37.40;;;;;;;;;;5077690;28;20044;-70
2021/12/03 18:58:51;;;;;;;67.77;37.10;;;;;;;;;;5054529;28;20174;-70
2021/12/03 19:01:17;;;;;;;56.97;36.23;;;;;;;;;;5077848;28;20119;-69
2021/12/03 19:07:02;;;;;;;55.87;36.97;;;;;;;;;;5064034;28;20076;-69
2021/12/03 19:09:08;;;;;;;63.27;37.57;;;;;;;;;;5070422;28;20072;-69
2021/12/03 19:11:43;;;;;;;81.13;45.93;;;;;;;;;;5061623;28;20120;-69
2021/12/03 19:14:09;;;;;;;80.93;44.73;;;;;;;;;;5059217;28;20067;-69
2021/12/03 19:16:36;;;;;;;53.10;33.73;;;;;;;;;;5058032;28;20052;-69
2021/12/03 19:19:04;;;;;;;56.33;33.97;;;;;;;;;;5060900;28;20139;-69
2021/12/03 19:21:38;;;;;;;62.00;39.37;;;;;;;;;;5059379;28;20443;-69
2021/12/03 19:24:05;;;;;;;60.37;37.20;;;;;;;;;;5059235;28;20072;-69
2021/12/03 19:26:32;;;;;;;58.30;32.47;;;;;;;;;;5076705;28;20413;-69
2021/12/03 19:29:00;;;;;;;61.97;34.40;;;;;;;;;;5041335;28;20040;-69
2021/12/03 19:31:27;;;;;;;66.90;36.77;;;;;;;;;;5076906;28;20039;-69
2021/12/03 19:33:53;;;;;;;76.63;35.53;;;;;;;;;;5057708;28;20048;-69
2021/12/03 19:36:24;;;;;;;82.40;38.50;;;;;;;;;;5059869;28;20045;-69
2021/12/03 19:38:50;;;;;;;71.30;41.23;;;;;;;;;;5058332;28;20040;-69
2021/12/03 19:41:56;;;;;;;71.50;38.90;;;;;;;;;;5063324;28;20036;-70
2021/12/03 19:44:15;;;;;;;60.97;35.13;;;;;;;;;;5057101;28;20058;-69
2021/12/03 19:46:45;;;;;;;64.10;35.03;;;;;;;;;;5059554;28;20609;-69
2021/12/03 19:49:17;;;;;;;56.50;36.33;;;;;;;;;;5059237;28;20083;-69
2021/12/03 19:51:52;;;;;;;73.57;33.77;;;;;;;;;;5063504;28;20155;-69
2021/12/03 19:54:20;;;;;;;72.67;34.80;;;;;;;;;;5065539;28;20044;-69
2021/12/03 19:56:46;;;;;;;70.03;37.07;;;;;;;;;;5050257;28;20521;-69
2021/12/03 19:59:12;;;;;;;76.13;40.47;;;;;;;;;;5070590;28;20040;-69
2021/12/03 20:01:38;;;;;;;74.17;37.37;;;;;;;;;;5070281;28;20630;-69
2021/12/03 20:04:07;;;;;;;66.53;37.10;;;;;;;;;;5087785;28;20052;-69
2021/12/03 20:06:33;;;;;;;67.33;37.30;;;;;;;;;;5070622;28;20092;-69
2021/12/03 20:09:02;;;;;;;71.23;36.57;;;;;;;;;;5070916;28;20498;-69
2021/12/03 20:11:40;;;;;;;80.20;40.17;;;;;;;;;;5074249;28;20888;-69
2021/12/03 20:14:09;;;;;;;69.43;35.83;;;;;;;;;;5048118;28;20174;-69
2021/12/03 20:17:20;;;;;;;76.33;39.93;;;;;;;;;;5083289;28;20052;-70
2021/12/03 20:21:57;;;;;;;74.97;37.80;;;;;;;;;;5074334;28;20098;-69
2021/12/03 20:24:30;;;;;;;67.53;37.00;;;;;;;;;;5069398;28;20040;-69
2021/12/03 20:27:05;;;;;;;60.88;36.35;;;;;;;;;;5072109;28;20040;-69
2021/12/03 20:29:49;;;;;;;83.97;38.40;;;;;;;;;;5068031;28;20144;-69
2021/12/03 20:35:00;;;;;;;62.23;35.70;;;;;;;;;;5078967;28;20040;-69
2021/12/03 20:37:39;;;;;;;86.67;38.73;;;;;;;;;;5062298;28;20083;-69
2021/12/03 20:40:13;;;;;;;86.63;39.43;;;;;;;;;;5062093;28;20097;-70
2021/12/03 20:42:56;;;;;;;86.00;40.17;;;;;;;;;;5072737;28;20739;-69
2021/12/03 21:09:25;;;;;;;84.10;33.73;;;;;;;;;;5081106;28;20056;-69
2021/12/03 21:11:56;;;;;;;85.70;34.77;;;;;;;;;;5061066;28;20418;-69
2021/12/03 21:14:29;;;;;;;75.40;35.60;;;;;;;;;;5061495;28;20064;-69
2021/12/03 21:17:06;;;;;;;88.45;37.25;;;;;;;;;;5043431;28;20061;-70
2021/12/03 21:22:12;;;;;;;96.67;35.13;;;;;;;;;;5056813;28;20090;-69
2021/12/03 21:24:40;;;;;;;69.73;30.97;;;;;;;;;;5060879;28;20566;-69
2021/12/03 21:27:10;;;;;;;63.87;32.13;;;;;;;;;;5041405;28;20048;-70
2021/12/03 21:32:34;;;;;;;70.37;31.53;;;;;;;;;;5081705;28;20044;-69